createdAt,value
2022-11-16T06:47:00.590Z,5.49
2022-11-16T06:49:29.494Z,5.62
2022-11-16T06:51:59.850Z,5.73
2022-11-16T06:54:28.204Z,5.74
2022-11-16T06:56:56.692Z,5.83
2022-11-16T06:59:25.047Z,5.94
2022-11-16T07:01:53.565Z,6.02
2022-11-16T07:04:21.928Z,6.07
2022-11-16T07:06:54.633Z,6.06
2022-11-16T07:09:23.177Z,6.14
2022-11-16T07:11:51.812Z,6.22
2022-11-16T07:14:20.652Z,6.21
2022-11-16T07:16:48.906Z,6.26
2022-11-16T07:19:17.295Z,6.28
2022-11-16T07:21:46.010Z,6.29
2022-11-16T07:24:17.040Z,6.34
2022-11-16T07:26:45.792Z,6.39
2022-11-16T07:29:17.488Z,6.38
2022-11-16T07:32:03.523Z,6.47
2022-11-16T07:34:51.535Z,6.45
2022-11-16T07:37:19.763Z,6.40
2022-11-16T07:39:48.224Z,6.45
2022-11-16T07:42:17.075Z,6.34
2022-11-16T07:45:12.391Z,6.36
2022-11-16T07:47:44.627Z,6.27
2022-11-16T07:50:18.215Z,6.26
2022-11-16T07:52:47.054Z,6.36
2022-11-16T07:55:26.097Z,6.39
2022-11-16T07:57:54.789Z,6.50
2022-11-16T08:00:24.791Z,6.57
2022-11-16T08:02:57.803Z,6.62
2022-11-16T08:05:26.979Z,6.53
2022-11-16T08:07:55.326Z,6.53
2022-11-16T08:10:25.124Z,6.47
2022-11-16T08:12:54.989Z,6.39
2022-11-16T08:15:25.147Z,6.33
2022-11-16T08:17:54.002Z,6.32
2022-11-16T08:20:22.593Z,6.36
2022-11-16T08:22:52.284Z,6.22
2022-11-16T08:25:20.586Z,6.26
2022-11-16T08:27:48.986Z,6.28
2022-11-16T08:39:26.645Z,6.07
2022-11-16T08:41:55.218Z,6.01
2022-11-16T08:44:23.383Z,6.02
2022-11-16T08:46:54.017Z,6.06
2022-11-16T08:49:34.507Z,5.98
2022-11-16T08:52:03.273Z,5.98
2022-11-16T08:54:31.628Z,6.09
2022-11-16T08:57:00.592Z,6.10
2022-11-16T08:59:29.314Z,6.09
2022-11-16T09:02:01.067Z,6.21
2022-11-16T09:04:34.076Z,6.34
2022-11-16T09:07:05.471Z,6.54
2022-11-16T09:09:34.123Z,6.63
2022-11-16T09:12:02.197Z,6.72
2022-11-16T09:14:30.884Z,6.75
2022-11-16T09:16:59.265Z,6.70
2022-11-16T09:19:27.494Z,6.74
2022-11-16T09:21:55.883Z,6.70
2022-11-16T09:24:24.200Z,6.68
2022-11-16T09:26:52.446Z,6.65
2022-11-16T09:29:20.565Z,6.62
2022-11-16T09:31:48.675Z,6.63
2022-11-16T09:34:17.315Z,6.69
2022-11-16T09:36:45.489Z,6.68
2022-11-16T09:39:30.257Z,6.67
2022-11-16T09:42:18.254Z,6.77
2022-11-16T09:44:57.946Z,6.87
2022-11-16T09:47:41.335Z,7.08
2022-11-16T09:50:37.615Z,7.20
2022-11-16T09:53:52.203Z,7.36
2022-11-16T09:56:23.526Z,7.54
2022-11-16T09:58:51.538Z,7.78
2022-11-16T10:01:34.568Z,8.01
2022-11-16T10:04:15.128Z,8.14
2022-11-16T10:06:58.853Z,8.10
2022-11-16T10:09:28.128Z,8.09
2022-11-16T10:12:03.268Z,8.02
2022-11-16T10:15:05.149Z,8.03
2022-11-16T10:17:55.472Z,8.08
2022-11-16T10:20:58.262Z,8.11
2022-11-16T10:23:50.758Z,8.18
2022-11-16T10:26:40.317Z,8.32
2022-11-16T10:29:34.324Z,8.32
2022-11-16T10:32:20.420Z,8.18
2022-11-16T10:35:03.649Z,8.18
2022-11-16T10:37:36.761Z,8.24
2022-11-16T10:40:18.160Z,8.24
2022-11-16T10:43:13.543Z,8.26
2022-11-16T10:46:20.683Z,8.22
2022-11-16T10:49:07.873Z,8.17
2022-11-16T10:51:36.232Z,8.10
2022-11-16T10:54:18.467Z,8.02
2022-11-16T10:56:49.912Z,7.95
2022-11-16T10:59:21.730Z,7.96
2022-11-16T11:01:53.729Z,7.90
2022-11-16T11:04:28.156Z,7.87
2022-11-16T11:06:59.156Z,7.98
2022-11-16T11:09:30.236Z,8.10
2022-11-16T11:12:23.141Z,8.03
2022-11-16T11:15:11.095Z,8.15
2022-11-16T11:17:40.684Z,8.15
2022-11-16T11:20:18.628Z,8.17
2022-11-16T11:22:59.613Z,8.08
2022-11-16T11:25:36.051Z,8.10
2022-11-16T11:28:23.615Z,8.14
2022-11-16T11:30:58.486Z,8.21
2022-11-16T11:33:31.019Z,8.28
2022-11-16T11:36:23.058Z,8.26
2022-11-16T11:39:07.342Z,8.16
2022-11-16T11:41:47.140Z,8.15
2022-11-16T11:44:18.023Z,8.17
2022-11-16T11:50:06.586Z,8.06
2022-11-16T11:52:41.412Z,8.12
2022-11-16T11:55:17.264Z,8.12
2022-11-16T11:57:49.925Z,8.12
2022-11-16T12:00:18.901Z,8.16
2022-11-16T12:03:16.264Z,8.21
2022-11-16T12:06:08.653Z,8.19
2022-11-16T12:17:48.047Z,8.02
2022-11-16T12:21:07.490Z,8.07
2022-11-16T12:23:50.546Z,8.06
2022-11-16T12:26:41.404Z,8.08
2022-11-16T12:29:30.733Z,8.07
2022-11-16T12:32:50.315Z,8.14
2022-11-16T12:35:32.241Z,7.95
2022-11-16T12:38:42.378Z,7.94
2022-11-16T12:41:31.644Z,7.93
2022-11-16T12:44:03.322Z,7.89
2022-11-16T12:46:55.748Z,7.90
2022-11-16T12:49:49.319Z,7.84
2022-11-16T12:52:36.517Z,7.73
2022-11-16T13:00:00.558Z,7.70
2022-11-16T13:03:45.225Z,7.72
2022-11-16T13:06:27.531Z,7.77
2022-11-16T13:13:48.135Z,7.62
2022-11-16T13:16:21.237Z,7.60
2022-11-16T13:18:51.227Z,7.64
2022-11-16T13:21:39.015Z,7.68
2022-11-16T13:24:22.611Z,7.70
2022-11-16T13:26:59.565Z,7.71
2022-11-16T13:29:48.872Z,7.73
2022-11-16T13:32:25.294Z,7.77
2022-11-16T13:34:54.578Z,7.84
2022-11-16T13:37:38.279Z,7.85
2022-11-16T13:40:06.493Z,7.84
2022-11-16T13:42:39.334Z,7.82
2022-11-16T13:45:22.147Z,7.76
2022-11-16T13:47:55.832Z,7.74
2022-11-16T13:50:38.138Z,7.63
2022-11-16T13:54:10.701Z,7.61
2022-11-16T13:56:04.595Z,7.57
2022-11-16T13:58:35.816Z,7.56
2022-11-16T14:01:10.922Z,7.54
2022-11-16T14:03:41.029Z,7.56
2022-11-16T14:06:24.513Z,7.57
2022-11-16T14:08:57.713Z,7.56
2022-11-16T14:11:39.220Z,7.49
2022-11-16T14:14:12.964Z,7.47
2022-11-16T14:16:51.625Z,7.46
2022-11-16T14:19:47.413Z,7.45
2022-11-16T14:22:39.171Z,7.45
2022-11-16T14:25:41.124Z,7.43
2022-11-16T14:28:26.023Z,7.44
2022-11-16T14:31:12.416Z,7.36
2022-11-16T14:33:41.199Z,7.33
2022-11-16T14:36:11.395Z,7.35
2022-11-16T14:38:42.182Z,7.30
2022-11-16T14:41:22.882Z,7.24
2022-11-16T14:43:55.604Z,7.26
2022-11-16T14:46:28.098Z,7.25
2022-11-16T14:48:59.336Z,7.22
2022-11-16T14:51:35.703Z,7.25
2022-11-16T14:54:26.101Z,7.22
2022-11-16T14:56:59.420Z,7.18
2022-11-16T14:59:28.800Z,7.19
2022-11-16T15:02:01.314Z,7.15
2022-11-16T15:04:30.886Z,7.22
2022-11-16T15:07:03.583Z,7.24
2022-11-16T15:09:39.455Z,7.25
2022-11-16T15:12:34.043Z,7.23
2022-11-16T15:15:07.678Z,7.25
2022-11-16T15:17:36.147Z,7.22
2022-11-16T15:20:17.335Z,7.15
2022-11-16T15:22:48.547Z,7.14
2022-11-16T15:26:02.533Z,7.09
2022-11-16T15:28:33.310Z,7.03
2022-11-16T15:31:04.983Z,7.05
2022-11-16T15:33:38.621Z,7.07
2022-11-16T15:36:32.943Z,6.99
2022-11-16T15:39:02.585Z,6.84
2022-11-16T15:41:31.978Z,6.72
2022-11-16T15:44:14.050Z,6.70
2022-11-16T15:46:47.310Z,6.70
2022-11-16T15:49:37.740Z,6.70
2022-11-16T15:52:06.704Z,6.72
2022-11-16T15:54:55.026Z,6.77
2022-11-16T15:57:24.680Z,6.75
2022-11-16T15:59:55.275Z,6.74
2022-11-16T16:02:27.730Z,6.75
2022-11-16T16:04:56.434Z,6.80
2022-11-16T16:07:39.866Z,6.88
2022-11-16T16:10:24.937Z,6.86
2022-11-16T16:12:56.025Z,6.88
2022-11-16T16:15:36.837Z,6.83
2022-11-16T16:18:36.799Z,6.82
2022-11-16T16:21:05.053Z,6.89
2022-11-16T16:23:33.689Z,6.87
2022-11-16T16:26:05.338Z,6.80
2022-11-16T16:28:33.577Z,6.78
2022-11-16T16:31:01.827Z,6.78
2022-11-16T16:33:30.278Z,6.78
2022-11-16T16:35:58.517Z,6.81
2022-11-16T16:38:26.664Z,6.84
2022-11-16T16:41:05.680Z,6.79
2022-11-16T16:43:34.538Z,6.73
2022-11-16T16:46:04.083Z,6.70
2022-11-16T16:48:32.238Z,6.66
2022-11-16T16:51:00.373Z,6.69
2022-11-16T16:53:28.546Z,6.77
2022-11-16T16:55:56.718Z,6.84
2022-11-16T16:58:24.712Z,6.85
2022-11-16T17:00:56.937Z,6.85
2022-11-16T17:03:28.177Z,6.74
2022-11-16T17:06:01.096Z,6.71
2022-11-16T17:08:37.010Z,6.63
2022-11-16T17:11:05.334Z,6.62
2022-11-16T17:13:33.734Z,6.63
2022-11-16T17:16:05.941Z,6.65
2022-11-16T17:18:34.076Z,6.65
2022-11-16T17:21:07.355Z,6.67
2022-11-16T17:23:36.576Z,6.61
2022-11-16T17:26:06.891Z,6.68
2022-11-16T17:28:35.056Z,6.65
2022-11-16T17:31:09.485Z,6.74
2022-11-16T17:33:39.519Z,6.78
2022-11-16T17:36:11.169Z,6.79
2022-11-16T17:38:40.031Z,6.80
2022-11-16T17:41:13.484Z,6.73
2022-11-16T17:43:43.966Z,6.64
2022-11-16T17:46:17.886Z,6.64
2022-11-16T17:48:47.701Z,6.60
2022-11-16T17:51:18.757Z,6.62
2022-11-16T17:53:47.435Z,6.64
2022-11-16T17:56:22.282Z,6.64
2022-11-16T17:58:51.826Z,6.64
2022-11-16T18:01:20.237Z,6.61
2022-11-16T18:03:48.532Z,6.56
2022-11-16T18:06:19.295Z,6.50
2022-11-16T18:08:47.830Z,6.47
2022-11-16T18:11:18.503Z,6.52
2022-11-16T18:13:47.891Z,6.57
2022-11-16T18:16:20.314Z,6.58
2022-11-16T18:18:49.372Z,6.63
2022-11-16T18:21:20.647Z,6.69
2022-11-16T18:23:49.889Z,6.66
2022-11-16T18:26:21.391Z,6.60
2022-11-16T18:28:51.179Z,6.57
2022-11-16T18:31:21.677Z,6.52
2022-11-16T18:33:51.360Z,6.49
2022-11-16T18:36:21.035Z,6.44
2022-11-16T18:38:49.514Z,6.43
2022-11-16T18:41:24.980Z,6.44
2022-11-16T18:44:00.622Z,6.38
2022-11-16T18:46:31.160Z,6.40
2022-11-16T18:49:00.158Z,6.45
2022-11-16T18:51:29.312Z,6.45
2022-11-16T18:53:57.737Z,6.50
2022-11-16T18:56:25.893Z,6.46
2022-11-16T18:58:54.452Z,6.44
2022-11-16T19:01:26.010Z,6.40
2022-11-16T19:03:55.747Z,6.40
2022-11-16T19:06:24.105Z,6.38
2022-11-16T19:08:59.377Z,6.38
2022-11-16T19:11:28.659Z,6.40
2022-11-16T19:14:03.982Z,6.39
2022-11-16T19:16:32.257Z,6.36
2022-11-16T19:19:01.640Z,6.38
2022-11-16T19:21:29.771Z,6.36
2022-11-16T19:23:58.662Z,6.34
2022-11-16T19:26:28.108Z,6.31
2022-11-16T19:28:56.550Z,6.32
2022-11-16T19:31:29.359Z,6.45
2022-11-16T19:34:06.317Z,6.47
2022-11-16T19:36:36.794Z,6.45
2022-11-16T19:39:05.665Z,6.43
2022-11-16T19:41:33.920Z,6.43
2022-11-16T19:44:02.628Z,6.46
2022-11-16T19:46:32.639Z,6.43
2022-11-16T19:49:01.319Z,6.42
2022-11-16T19:51:34.148Z,6.45
2022-11-16T19:54:02.752Z,6.43
2022-11-16T19:56:30.954Z,6.43
2022-11-16T19:58:58.912Z,6.39
2022-11-16T20:01:29.601Z,6.37
2022-11-16T20:04:03.442Z,6.36
2022-11-16T20:06:34.245Z,6.36
2022-11-16T20:09:08.915Z,6.33
2022-11-16T20:11:39.591Z,6.33
2022-11-16T20:14:10.842Z,6.35
2022-11-16T20:16:40.912Z,6.34
2022-11-16T20:19:10.450Z,6.36
2022-11-16T20:21:41.111Z,6.36
2022-11-16T20:24:14.887Z,6.39
2022-11-16T20:26:46.339Z,6.43
2022-11-16T20:29:17.511Z,6.41
2022-11-16T20:31:46.682Z,6.38
2022-11-16T20:34:16.808Z,6.36
2022-11-16T20:36:46.930Z,6.37
2022-11-16T20:39:16.854Z,6.40
2022-11-16T20:41:45.343Z,6.37
2022-11-16T20:44:18.368Z,6.32
2022-11-16T20:46:46.915Z,6.28
2022-11-16T20:49:15.278Z,6.29
2022-11-16T20:51:43.456Z,6.31
2022-11-16T20:54:11.956Z,6.34
2022-11-16T20:56:40.111Z,6.33
2022-11-16T20:59:08.233Z,6.37
2022-11-16T21:01:36.955Z,6.37
2022-11-16T21:04:06.488Z,6.27
2022-11-16T21:06:34.658Z,6.17
2022-11-16T21:09:04.896Z,6.19
2022-11-16T21:11:52.552Z,6.22
2022-11-16T21:14:22.004Z,6.20
2022-11-16T21:16:50.201Z,6.14
2022-11-16T21:19:18.329Z,6.20
2022-11-16T21:21:46.570Z,6.19
2022-11-16T21:24:15.136Z,6.21
2022-11-16T21:26:43.246Z,6.22
2022-11-16T21:29:11.493Z,6.23
2022-11-16T21:31:39.970Z,6.21
2022-11-16T21:34:08.145Z,6.23
2022-11-16T21:36:36.458Z,6.22
2022-11-16T21:39:04.556Z,6.20
2022-11-16T21:41:32.881Z,6.24
2022-11-16T21:44:01.258Z,6.24
2022-11-16T21:46:29.980Z,6.22
2022-11-16T21:48:58.369Z,6.19
2022-11-16T21:51:27.324Z,6.15
2022-11-16T21:53:55.727Z,6.12
2022-11-16T21:56:26.246Z,6.11
2022-11-16T21:58:54.802Z,6.11
2022-11-16T22:01:24.181Z,6.03
2022-11-16T22:04:11.290Z,6.02
2022-11-16T22:06:58.029Z,5.98
2022-11-16T22:09:26.160Z,6.05
2022-11-16T22:11:54.301Z,6.09
2022-11-16T22:14:22.355Z,6.13
2022-11-16T22:16:50.448Z,6.06
2022-11-16T22:19:18.428Z,6.07
2022-11-16T22:21:46.914Z,6.06
2022-11-16T22:24:15.192Z,6.06
2022-11-16T22:26:43.563Z,6.14
2022-11-16T22:29:11.840Z,6.17
2022-11-16T22:31:40.256Z,6.15
2022-11-16T22:34:08.498Z,6.07
2022-11-16T22:36:36.528Z,5.98
2022-11-16T22:39:04.852Z,6.00
2022-11-16T22:41:33.235Z,6.03
2022-11-16T22:44:01.436Z,6.06
2022-11-16T22:46:30.095Z,6.09
2022-11-16T22:48:58.251Z,6.16
2022-11-16T22:51:28.524Z,6.16
2022-11-16T22:53:57.701Z,6.11
2022-11-16T22:56:26.995Z,6.12
2022-11-16T22:58:55.415Z,6.14
2022-11-16T23:01:24.171Z,6.19
2022-11-16T23:03:52.291Z,6.16
2022-11-16T23:06:20.723Z,6.10
2022-11-16T23:08:48.824Z,6.15
2022-11-16T23:11:38.041Z,6.17
2022-11-16T23:14:26.248Z,6.14
2022-11-16T23:16:54.531Z,6.12
2022-11-16T23:19:46.211Z,6.12
2022-11-16T23:22:35.999Z,6.14
2022-11-16T23:25:25.781Z,6.07
2022-11-16T23:27:54.483Z,6.07
2022-11-16T23:30:24.079Z,6.03
2022-11-16T23:32:52.212Z,5.84
2022-11-16T23:35:20.540Z,5.91
2022-11-16T23:38:06.329Z,5.95
2022-11-16T23:40:37.573Z,5.94
2022-11-16T23:43:26.036Z,5.95
2022-11-16T23:45:54.401Z,6.00
2022-11-16T23:48:22.433Z,5.98
2022-11-16T23:50:50.557Z,6.00
